Time;durP1;ratioP1;P1;durP2;ratioP2;P2;SDS_P1;SDS_P2;PMS_P1;PMS_P2;Temp;Humidity;BMP_temperature;BMP_pressure;BME280_temperature;BME280_humidity;BME280_pressure;Samples;Min_cycle;Max_cycle;Signal;HPM_P1;HPM_P2
2022/06/19 00:02:25;;;;;;;15.07;3.03;;;14.40;99.90;;;;;;4787769;29;20433;-69
2022/06/19 00:04:52;;;;;;;14.30;2.90;;;14.30;99.90;;;;;;4806398;29;20389;-69
2022/06/19 00:07:18;;;;;;;15.02;3.72;;;14.30;99.90;;;;;;4788950;29;20061;-70
2022/06/19 00:09:45;;;;;;;12.35;2.88;;;14.30;99.90;;;;;;4788782;29;20130;-70
2022/06/19 00:12:11;;;;;;;12.07;3.13;;;14.30;99.90;;;;;;4807002;29;20047;-69
2022/06/19 00:14:37;;;;;;;12.27;2.92;;;14.30;99.90;;;;;;4790709;29;20466;-70
2022/06/19 00:17:05;;;;;;;11.93;2.75;;;14.20;99.90;;;;;;4789820;29;20063;-69
2022/06/19 00:19:32;;;;;;;14.40;3.10;;;14.20;99.90;;;;;;4790411;29;20563;-69
2022/06/19 00:21:57;;;;;;;13.73;3.03;;;14.20;99.90;;;;;;4788773;29;20055;-69
2022/06/19 00:24:23;;;;;;;13.52;2.67;;;14.10;99.90;;;;;;4806523;29;20142;-69
2022/06/19 00:26:49;;;;;;;10.70;3.03;;;14.10;99.90;;;;;;4789861;29;20429;-68
2022/06/19 00:29:14;;;;;;;14.52;2.85;;;14.10;99.90;;;;;;4806859;29;20063;-69
2022/06/19 00:31:40;;;;;;;15.30;2.97;;;14.10;99.90;;;;;;4787887;29;20054;-69
2022/06/19 00:34:05;;;;;;;14.63;3.00;;;14.00;99.90;;;;;;4804198;29;20059;-69
2022/06/19 00:36:32;;;;;;;12.23;2.72;;;14.00;99.90;;;;;;4788613;29;20051;-69
2022/06/19 00:38:57;;;;;;;14.07;2.50;;;14.10;99.90;;;;;;4806538;29;20507;-69
2022/06/19 00:41:25;;;;;;;13.20;2.92;;;14.10;99.90;;;;;;4805233;29;20082;-68
2022/06/19 00:43:59;;;;;;;14.05;3.15;;;14.10;99.90;;;;;;4805839;29;20059;-69
2022/06/19 00:47:13;;;;;;;14.15;2.80;;;14.10;99.90;;;;;;4788375;30;20428;-70
2022/06/19 00:49:47;;;;;;;13.68;2.40;;;14.20;99.90;;;;;;4778179;30;20054;-69
2022/06/19 00:52:23;;;;;;;11.75;3.17;;;14.10;99.90;;;;;;4772523;30;20358;-69
2022/06/19 00:54:54;;;;;;;12.40;2.40;;;14.10;99.90;;;;;;4788535;30;20167;-70
2022/06/19 00:57:21;;;;;;;14.77;2.95;;;14.20;99.90;;;;;;4776180;29;20051;-69
2022/06/19 00:59:59;;;;;;;12.93;2.90;;;14.10;99.90;;;;;;4806682;29;20076;-69
2022/06/19 01:02:25;;;;;;;11.77;2.38;;;14.20;99.90;;;;;;4804112;29;20117;-69
2022/06/19 01:04:55;;;;;;;10.60;2.85;;;14.20;99.90;;;;;;4805251;29;20082;-69
2022/06/19 01:07:22;;;;;;;16.73;3.15;;;14.20;99.90;;;;;;4789334;29;20130;-68
2022/06/19 01:09:51;;;;;;;10.90;2.60;;;14.20;99.90;;;;;;4805489;29;20054;-69
2022/06/19 01:12:19;;;;;;;12.82;2.88;;;14.20;99.90;;;;;;4789253;29;20058;-68
2022/06/19 01:14:46;;;;;;;17.48;2.60;;;14.20;99.90;;;;;;4805002;29;20053;-69
2022/06/19 01:17:15;;;;;;;12.38;2.55;;;14.20;99.90;;;;;;4789287;29;20059;-70
2022/06/19 01:19:43;;;;;;;15.10;3.08;;;14.30;99.90;;;;;;4806344;29;20117;-69
2022/06/19 01:22:20;;;;;;;17.45;2.83;;;14.30;99.90;;;;;;4788173;29;20461;-69
2022/06/19 01:25:14;;;;;;;7.85;2.08;;;14.40;99.90;;;;;;4805756;29;20058;-69
2022/06/19 01:30:35;;;;;;;6.50;2.00;;;14.40;99.90;;;;;;4772094;29;20082;-68
2022/06/19 01:33:03;;;;;;;7.60;2.08;;;14.40;99.90;;;;;;4788326;29;20047;-69
2022/06/19 01:35:31;;;;;;;10.77;2.00;;;14.50;99.90;;;;;;4788346;29;20115;-69
2022/06/19 01:37:58;;;;;;;12.02;2.13;;;14.50;99.90;;;;;;4793653;29;20130;-69
2022/06/19 01:40:29;;;;;;;8.70;2.08;;;14.50;99.90;;;;;;4804743;29;20057;-68
2022/06/19 01:42:56;;;;;;;4.85;1.40;;;14.50;99.90;;;;;;4799741;29;20074;-68
2022/06/19 01:45:22;;;;;;;9.65;2.08;;;14.50;99.90;;;;;;4816184;29;20046;-68
2022/06/19 01:47:49;;;;;;;6.88;1.85;;;14.50;99.90;;;;;;4829249;29;20064;-69
2022/06/19 01:50:19;;;;;;;5.95;1.45;;;14.60;99.90;;;;;;4813971;29;20055;-68
2022/06/19 01:52:48;;;;;;;6.93;2.08;;;14.60;99.90;;;;;;4807289;29;20054;-68
2022/06/19 01:55:17;;;;;;;7.20;1.55;;;14.60;99.90;;;;;;4795660;29;20054;-68
2022/06/19 01:57:51;;;;;;;6.20;1.50;;;14.60;99.90;;;;;;4812235;29;20100;-70
2022/06/19 02:00:23;;;;;;;8.05;1.67;;;14.60;99.90;;;;;;4811482;29;20485;-70
2022/06/19 02:03:07;;;;;;;6.35;1.42;;;14.60;99.90;;;;;;4810977;29;20054;-68
2022/06/19 02:05:34;;;;;;;8.88;1.95;;;14.60;99.90;;;;;;4795779;29;20392;-69
2022/06/19 02:08:00;;;;;;;10.07;1.80;;;14.60;99.90;;;;;;4795348;29;20125;-69
2022/06/19 02:10:26;;;;;;;6.32;1.65;;;14.60;99.90;;;;;;4811964;29;20589;-69
2022/06/19 02:12:52;;;;;;;9.13;1.75;;;14.60;99.90;;;;;;4794844;29;20054;-68
2022/06/19 02:15:18;;;;;;;8.68;1.92;;;14.60;99.90;;;;;;4811404;29;20480;-69
2022/06/19 02:17:49;;;;;;;8.68;1.52;;;14.60;99.90;;;;;;4810838;29;20057;-69
2022/06/19 02:20:16;;;;;;;5.72;1.63;;;14.60;99.90;;;;;;4795454;29;20244;-68
2022/06/19 02:22:41;;;;;;;8.90;1.63;;;14.60;99.90;;;;;;4793798;29;20047;-70
2022/06/19 02:25:08;;;;;;;7.95;1.88;;;14.60;99.90;;;;;;4794897;29;20054;-69
2022/06/19 02:27:35;;;;;;;11.18;2.38;;;14.60;99.90;;;;;;4795125;29;20058;-69
2022/06/19 02:30:03;;;;;;;10.10;2.42;;;14.60;99.90;;;;;;4795376;29;20510;-69
2022/06/19 02:32:39;;;;;;;8.73;2.05;;;14.60;99.90;;;;;;4808692;29;20373;-69
2022/06/19 02:35:22;;;;;;;9.27;2.45;;;14.60;99.90;;;;;;4811523;29;20054;-69
2022/06/19 02:37:51;;;;;;;8.60;2.22;;;14.60;99.90;;;;;;4794620;29;20058;-68
2022/06/19 02:40:26;;;;;;;8.32;1.98;;;14.60;99.90;;;;;;4794172;29;20118;-69
2022/06/19 02:42:51;;;;;;;8.48;2.30;;;14.60;99.90;;;;;;4793069;30;20484;-69
2022/06/19 02:45:23;;;;;;;13.05;2.60;;;14.60;99.90;;;;;;4793018;30;20057;-69
2022/06/19 02:47:51;;;;;;;11.88;2.63;;;14.60;99.90;;;;;;4806888;29;20137;-69
2022/06/19 02:50:21;;;;;;;9.98;2.38;;;14.60;99.90;;;;;;4795013;29;20381;-69
2022/06/19 02:52:48;;;;;;;14.00;2.60;;;14.70;99.90;;;;;;4794356;29;20086;-68
2022/06/19 02:55:14;;;;;;;10.13;2.38;;;14.70;99.90;;;;;;4795032;29;20057;-68
2022/06/19 02:57:41;;;;;;;9.88;2.13;;;14.70;99.90;;;;;;4791343;29;20489;-69
2022/06/19 03:00:13;;;;;;;11.82;2.38;;;14.70;99.90;;;;;;4792617;29;20065;-68
2022/06/19 03:02:39;;;;;;;8.55;1.95;;;14.70;99.90;;;;;;4796194;29;20072;-69
2022/06/19 03:05:06;;;;;;;9.85;2.03;;;14.70;99.90;;;;;;4792025;29;20047;-68
2022/06/19 03:07:32;;;;;;;14.45;2.45;;;14.80;99.90;;;;;;4791876;29;20047;-69
2022/06/19 03:09:58;;;;;;;11.52;2.30;;;14.80;99.90;;;;;;4777197;29;20084;-69
2022/06/19 03:12:24;;;;;;;10.63;2.20;;;14.80;99.90;;;;;;4791580;29;20515;-70
2022/06/19 03:14:50;;;;;;;8.35;2.40;;;15.00;99.90;;;;;;4807683;29;20038;-68
2022/06/19 03:17:19;;;;;;;9.82;2.70;;;14.80;99.90;;;;;;4790788;29;20111;-68
2022/06/19 03:19:45;;;;;;;12.88;1.85;;;14.80;99.90;;;;;;4791946;29;20061;-68
2022/06/19 03:22:11;;;;;;;11.10;2.50;;;14.70;99.90;;;;;;4790751;29;20125;-69
2022/06/19 03:24:38;;;;;;;7.95;2.17;;;14.70;99.90;;;;;;4791212;29;20143;-69
2022/06/19 03:27:04;;;;;;;12.23;2.70;;;14.70;99.90;;;;;;4807987;29;20058;-69
2022/06/19 03:29:30;;;;;;;9.75;2.30;;;14.70;99.90;;;;;;4807814;29;20469;-68
2022/06/19 03:31:55;;;;;;;13.90;2.60;;;14.60;99.90;;;;;;4787998;29;20058;-68
2022/06/19 03:34:21;;;;;;;10.25;2.38;;;14.60;99.90;;;;;;4807204;29;20059;-69
2022/06/19 03:36:47;;;;;;;14.15;2.08;;;14.60;99.90;;;;;;4791001;29;20066;-69
2022/06/19 03:39:12;;;;;;;9.45;2.22;;;14.50;99.90;;;;;;4806319;29;20086;-69
2022/06/19 03:41:38;;;;;;;11.07;2.15;;;14.50;99.90;;;;;;4776372;29;20047;-70
2022/06/19 03:44:05;;;;;;;9.60;2.15;;;14.50;99.90;;;;;;4806650;29;20485;-70
2022/06/19 03:46:31;;;;;;;9.05;2.15;;;14.50;99.90;;;;;;4790843;29;20349;-68
2022/06/19 03:48:57;;;;;;;10.20;2.30;;;14.50;99.90;;;;;;4789945;29;20621;-69
2022/06/19 03:51:23;;;;;;;11.23;2.42;;;14.40;99.90;;;;;;4805798;29;20508;-68
2022/06/19 03:53:50;;;;;;;10.18;2.45;;;14.40;99.90;;;;;;4807836;29;20133;-69
2022/06/19 03:56:19;;;;;;;10.35;2.05;;;14.40;99.90;;;;;;4790568;29;20058;-69
2022/06/19 03:58:47;;;;;;;8.48;2.13;;;14.40;99.90;;;;;;4791304;29;20055;-68
2022/06/19 04:01:18;;;;;;;10.55;2.30;;;14.40;99.90;;;;;;4788099;29;20188;-69
2022/06/19 04:03:45;;;;;;;9.48;2.20;;;14.60;99.90;;;;;;4787898;30;20473;-67
2022/06/19 04:06:13;;;;;;;16.55;2.55;;;14.40;99.90;;;;;;4789196;30;20059;-69
2022/06/19 04:08:39;;;;;;;13.18;3.03;;;14.40;99.90;;;;;;4772526;30;20067;-68
2022/06/19 04:11:05;;;;;;;13.98;3.15;;;14.40;99.90;;;;;;4789036;30;20086;-69
2022/06/19 04:13:35;;;;;;;7.72;2.53;;;14.30;99.90;;;;;;4789227;30;20059;-68
2022/06/19 04:16:03;;;;;;;12.70;2.80;;;14.30;99.90;;;;;;4788709;29;20472;-70
2022/06/19 04:18:29;;;;;;;9.57;2.67;;;14.20;99.90;;;;;;4790743;29;20070;-70
2022/06/19 04:20:56;;;;;;;13.50;2.92;;;14.20;99.90;;;;;;4790280;29;20062;-69
2022/06/19 04:23:23;;;;;;;15.10;3.50;;;14.20;99.90;;;;;;4789956;29;20058;-70
2022/06/19 04:25:49;;;;;;;10.18;2.20;;;14.20;99.90;;;;;;4806909;29;20114;-69
2022/06/19 04:28:17;;;;;;;7.78;2.25;;;14.20;99.90;;;;;;4805940;29;20051;-68
2022/06/19 04:30:46;;;;;;;11.35;2.47;;;14.20;99.90;;;;;;4789402;29;20078;-70
2022/06/19 04:33:14;;;;;;;8.52;1.77;;;14.10;99.90;;;;;;4787908;29;20476;-70
2022/06/19 04:35:40;;;;;;;8.98;2.45;;;14.20;99.90;;;;;;4805755;29;20473;-69
2022/06/19 04:38:05;;;;;;;13.73;2.00;;;14.10;99.90;;;;;;4789618;29;20065;-69
2022/06/19 04:40:33;;;;;;;7.25;1.75;;;14.10;99.90;;;;;;4806704;29;20046;-69
2022/06/19 04:42:59;;;;;;;8.00;1.88;;;14.10;99.90;;;;;;4789580;29;20065;-70
2022/06/19 04:45:25;;;;;;;11.77;2.25;;;14.10;99.90;;;;;;4789141;29;20039;-68
2022/06/19 04:47:50;;;;;;;6.30;1.50;;;14.20;99.90;;;;;;4798648;29;20058;-68
2022/06/19 04:50:16;;;;;;;8.55;1.98;;;14.30;99.90;;;;;;4805793;29;20393;-69
2022/06/19 04:52:41;;;;;;;8.15;1.70;;;14.30;99.90;;;;;;4789591;29;20051;-69
2022/06/19 04:55:09;;;;;;;6.85;1.70;;;14.40;99.90;;;;;;4805796;29;20055;-69
2022/06/19 04:57:35;;;;;;;7.75;1.92;;;14.40;99.90;;;;;;4806412;29;20381;-68
2022/06/19 05:00:06;;;;;;;8.80;1.48;;;14.50;99.90;;;;;;4790401;29;20085;-69
2022/06/19 05:02:33;;;;;;;11.77;2.40;;;14.50;99.90;;;;;;4787447;29;20055;-69
2022/06/19 05:04:58;;;;;;;5.63;1.42;;;14.60;99.90;;;;;;4804625;29;20505;-69
2022/06/19 05:07:24;;;;;;;7.95;1.95;;;14.60;99.90;;;;;;4804368;29;20038;-68
2022/06/19 05:09:50;;;;;;;7.30;1.77;;;14.70;99.90;;;;;;4775155;29;20085;-69
2022/06/19 05:12:16;;;;;;;8.25;1.92;;;14.80;99.90;;;;;;4805532;29;20111;-68
2022/06/19 05:14:42;;;;;;;8.80;1.70;;;14.90;99.90;;;;;;4804261;29;20501;-69
2022/06/19 05:17:07;;;;;;;12.52;1.85;;;14.90;99.90;;;;;;4804575;29;20105;-70
2022/06/19 05:19:33;;;;;;;8.02;1.85;;;14.90;99.90;;;;;;4787019;29;20357;-69
2022/06/19 05:22:02;;;;;;;10.13;1.70;;;15.00;99.90;;;;;;4804796;29;20073;-69
2022/06/19 05:24:28;;;;;;;7.55;1.80;;;15.10;99.90;;;;;;4773278;29;20075;-70
2022/06/19 05:26:53;;;;;;;9.20;2.15;;;15.10;99.90;;;;;;4789952;29;20042;-69
2022/06/19 05:29:19;;;;;;;6.97;1.50;;;15.20;99.90;;;;;;4804882;29;20050;-69
2022/06/19 05:31:45;;;;;;;6.07;1.50;;;15.20;99.90;;;;;;4773205;29;20070;-69
2022/06/19 05:34:11;;;;;;;6.13;1.48;;;15.30;99.90;;;;;;4787655;29;20126;-70
2022/06/19 05:36:37;;;;;;;6.68;1.88;;;15.20;99.90;;;;;;4786852;29;20133;-69
2022/06/19 05:39:03;;;;;;;7.55;1.48;;;15.20;99.90;;;;;;4802962;29;20057;-67
2022/06/19 05:41:30;;;;;;;5.97;1.50;;;15.30;99.90;;;;;;4802605;29;20047;-69
2022/06/19 05:43:56;;;;;;;11.43;2.35;;;15.10;99.90;;;;;;4788507;29;20055;-70
2022/06/19 05:46:22;;;;;;;8.55;2.13;;;15.30;99.90;;;;;;4789249;29;20059;-70
2022/06/19 05:48:49;;;;;;;10.02;2.63;;;14.90;99.90;;;;;;4787837;29;20456;-69
2022/06/19 05:51:21;;;;;;;10.52;2.13;;;14.90;99.90;;;;;;4805432;29;20047;-69
2022/06/19 05:53:53;;;;;;;11.18;2.25;;;14.80;99.90;;;;;;4789763;29;20054;-70
2022/06/19 05:56:20;;;;;;;13.77;2.28;;;14.80;99.90;;;;;;4803182;29;20054;-68
2022/06/19 05:58:45;;;;;;;8.98;2.13;;;14.80;99.90;;;;;;4803928;29;20549;-68
2022/06/19 06:01:13;;;;;;;7.28;1.60;;;14.80;99.90;;;;;;4787272;29;20055;-69
2022/06/19 06:03:41;;;;;;;7.78;1.83;;;14.90;99.90;;;;;;4804936;29;20054;-70
2022/06/19 06:06:12;;;;;;;9.05;1.85;;;15.10;99.90;;;;;;4787229;29;20077;-67
2022/06/19 06:08:38;;;;;;;9.35;2.08;;;15.20;99.90;;;;;;4780595;29;20465;-68
2022/06/19 06:11:06;;;;;;;8.27;1.88;;;15.20;99.90;;;;;;4796104;29;20496;-68
2022/06/19 06:13:33;;;;;;;6.72;2.33;;;15.10;99.90;;;;;;4798557;29;20051;-67
2022/06/19 06:15:59;;;;;;;8.27;2.15;;;15.10;99.90;;;;;;4798299;29;20055;-67
2022/06/19 06:18:26;;;;;;;6.80;2.10;;;15.00;99.90;;;;;;4800261;29;20074;-67
2022/06/19 06:20:57;;;;;;;12.30;2.55;;;15.00;99.90;;;;;;4792922;29;20050;-67
2022/06/19 06:23:24;;;;;;;8.70;2.20;;;14.90;99.90;;;;;;4784375;29;20051;-67
2022/06/19 06:26:00;;;;;;;10.05;2.50;;;14.80;99.90;;;;;;4788720;29;20356;-68
2022/06/19 06:28:27;;;;;;;7.43;1.92;;;14.70;99.90;;;;;;4804415;29;20492;-66
2022/06/19 06:30:52;;;;;;;10.25;1.98;;;14.70;99.90;;;;;;4787307;29;20051;-66
2022/06/19 06:33:18;;;;;;;8.52;2.22;;;14.70;99.90;;;;;;4803519;29;20055;-68
2022/06/19 06:35:44;;;;;;;7.60;1.90;;;14.70;99.90;;;;;;4799358;29;20114;-69
2022/06/19 06:38:10;;;;;;;6.00;2.10;;;14.70;99.90;;;;;;4786698;29;20489;-68
2022/06/19 06:40:35;;;;;;;8.98;2.30;;;14.70;99.90;;;;;;4787078;29;20059;-68
2022/06/19 06:43:01;;;;;;;11.77;2.30;;;14.60;99.90;;;;;;4794902;29;20044;-67
2022/06/19 06:45:26;;;;;;;7.88;2.25;;;14.70;99.90;;;;;;4790991;29;20469;-69
2022/06/19 06:47:52;;;;;;;8.25;1.85;;;14.70;99.90;;;;;;4789704;30;20059;-69
2022/06/19 06:50:18;;;;;;;9.73;2.35;;;14.70;99.90;;;;;;4786402;29;20054;-68
2022/06/19 06:52:43;;;;;;;8.63;2.17;;;14.70;99.90;;;;;;4790623;29;20082;-69
2022/06/19 06:55:10;;;;;;;10.23;2.13;;;14.70;99.90;;;;;;4806568;29;20107;-66
2022/06/19 06:57:36;;;;;;;9.88;2.13;;;14.70;99.90;;;;;;4791630;29;20046;-66
2022/06/19 07:00:02;;;;;;;11.48;2.47;;;14.70;99.90;;;;;;4791793;29;20046;-68
2022/06/19 07:02:28;;;;;;;8.02;1.88;;;14.70;99.90;;;;;;4790194;29;20122;-67
2022/06/19 07:04:55;;;;;;;9.95;2.13;;;14.60;99.90;;;;;;4806386;29;20472;-68
2022/06/19 07:07:20;;;;;;;11.52;2.17;;;14.70;99.90;;;;;;4776591;29;20049;-67
2022/06/19 07:09:46;;;;;;;8.95;2.17;;;14.70;99.90;;;;;;4790483;29;20058;-68
2022/06/19 07:12:11;;;;;;;8.93;1.75;;;14.80;99.90;;;;;;4807621;29;20050;-69
2022/06/19 07:14:40;;;;;;;10.25;2.65;;;14.80;99.90;;;;;;4790285;29;20054;-68
2022/06/19 07:17:06;;;;;;;10.30;2.13;;;14.80;99.90;;;;;;4775830;29;20122;-69
2022/06/19 07:19:32;;;;;;;8.13;2.10;;;14.90;99.90;;;;;;4791835;29;20125;-68
2022/06/19 07:21:58;;;;;;;11.30;2.33;;;15.00;99.90;;;;;;4807593;29;20046;-66
2022/06/19 07:24:25;;;;;;;6.80;1.90;;;15.40;99.90;;;;;;4808273;29;20054;-69
2022/06/19 07:26:51;;;;;;;11.38;2.20;;;15.10;99.90;;;;;;4791767;29;20089;-67
2022/06/19 07:29:17;;;;;;;8.48;2.58;;;15.10;99.90;;;;;;4808135;29;20142;-69
2022/06/19 07:31:42;;;;;;;13.05;2.38;;;15.10;99.90;;;;;;4806932;29;20130;-68
2022/06/19 07:34:08;;;;;;;8.70;2.50;;;15.10;99.90;;;;;;4807469;29;20492;-68
2022/06/19 07:36:33;;;;;;;10.05;2.40;;;15.10;99.90;;;;;;4791055;29;20051;-67
2022/06/19 07:38:59;;;;;;;12.00;2.20;;;15.10;99.90;;;;;;4807409;29;20062;-68
2022/06/19 07:41:27;;;;;;;11.15;2.45;;;15.10;99.90;;;;;;4790450;29;20146;-68
2022/06/19 07:43:53;;;;;;;9.95;1.83;;;15.20;99.90;;;;;;4775260;29;20133;-69
2022/06/19 07:46:19;;;;;;;12.10;2.30;;;15.20;99.90;;;;;;4790375;29;20422;-67
2022/06/19 07:51:39;;;;;;;9.90;2.20;;;15.30;99.90;;;;;;4790980;29;20066;-69
2022/06/19 07:54:05;;;;;;;8.68;2.45;;;15.30;99.90;;;;;;4804556;29;20098;-67
2022/06/19 07:56:31;;;;;;;7.13;2.00;;;15.30;99.90;;;;;;4806871;29;20091;-68
2022/06/19 07:58:56;;;;;;;7.70;2.35;;;15.30;99.90;;;;;;4775922;29;20058;-68
2022/06/19 08:01:22;;;;;;;7.40;1.85;;;15.30;99.90;;;;;;4790354;29;20051;-69
2022/06/19 08:03:47;;;;;;;7.63;2.38;;;15.20;99.90;;;;;;4790857;29;20054;-69
2022/06/19 08:06:14;;;;;;;6.80;1.77;;;15.20;99.90;;;;;;4807105;29;20055;-68
2022/06/19 08:08:40;;;;;;;11.50;2.40;;;15.20;99.90;;;;;;4806953;29;20051;-67
2022/06/19 08:11:06;;;;;;;8.63;1.85;;;15.20;99.90;;;;;;4772522;30;20059;-68
2022/06/19 08:13:33;;;;;;;5.03;2.00;;;15.20;99.90;;;;;;4788909;30;20055;-69
2022/06/19 08:16:02;;;;;;;11.75;2.50;;;15.30;99.90;;;;;;4788069;30;20473;-67
2022/06/19 08:18:28;;;;;;;9.93;2.00;;;15.30;99.90;;;;;;4789065;30;20112;-67
2022/06/19 08:20:54;;;;;;;7.28;1.70;;;15.40;99.90;;;;;;4772739;30;20051;-68
2022/06/19 08:23:19;;;;;;;7.28;1.98;;;15.40;99.90;;;;;;4784040;29;20515;-68
2022/06/19 08:25:46;;;;;;;7.07;1.90;;;15.50;99.90;;;;;;4790586;29;20138;-67
2022/06/19 08:28:15;;;;;;;6.40;1.83;;;15.60;99.90;;;;;;4790558;29;20193;-69
2022/06/19 08:31:06;;;;;;;8.25;2.08;;;15.70;99.90;;;;;;4806629;29;20138;-69
2022/06/19 08:33:31;;;;;;;8.88;1.85;;;15.70;99.90;;;;;;4807227;29;20047;-69
2022/06/19 08:36:01;;;;;;;6.60;2.33;;;15.70;99.90;;;;;;4790075;29;20115;-68
2022/06/19 08:38:34;;;;;;;8.52;1.95;;;15.80;99.90;;;;;;4789776;29;20054;-68
2022/06/19 08:41:23;;;;;;;10.98;2.22;;;15.90;99.90;;;;;;4803744;29;20054;-67
2022/06/19 08:44:16;;;;;;;9.25;2.10;;;15.80;99.90;;;;;;4805319;29;20047;-67
2022/06/19 08:46:53;;;;;;;12.02;2.40;;;15.60;99.90;;;;;;4789806;29;20062;-69
2022/06/19 08:49:35;;;;;;;10.43;2.22;;;15.60;99.90;;;;;;4806265;29;20062;-67
2022/06/19 08:52:04;;;;;;;7.13;1.65;;;15.50;99.90;;;;;;4790411;29;20082;-69
2022/06/19 08:54:48;;;;;;;6.72;1.98;;;15.50;99.90;;;;;;4806099;29;20054;-68
2022/06/19 08:57:30;;;;;;;7.88;2.28;;;15.60;99.90;;;;;;4789042;29;20047;-68
2022/06/19 09:00:04;;;;;;;;;;;15.60;99.90;;;;;;4806954;29;20199;-68
2022/06/19 09:02:35;;;;;;;9.43;2.28;;;15.50;99.90;;;;;;4805568;29;20290;-69
2022/06/19 09:08:39;;;;;;;11.88;2.75;;;15.40;99.90;;;;;;4805956;29;20047;-68
2022/06/19 09:11:33;;;;;;;12.13;3.10;;;15.30;99.90;;;;;;4732580;30;20569;-69
2022/06/19 09:14:36;;;;;;;12.70;2.30;;;15.30;99.90;;;;;;4803741;29;20461;-67
2022/06/19 09:17:18;;;;;;;9.75;2.33;;;15.20;99.90;;;;;;4789794;29;20051;-66
2022/06/19 09:20:07;;;;;;;11.10;2.38;;;15.20;99.90;;;;;;4794161;29;20061;-68
2022/06/19 09:22:51;;;;;;;10.05;2.20;;;15.20;99.90;;;;;;4788385;29;20062;-68
2022/06/19 09:25:22;;;;;;;9.68;2.22;;;15.20;99.90;;;;;;4805588;29;20054;-69
2022/06/19 09:28:05;;;;;;;9.00;2.20;;;15.20;99.90;;;;;;4786137;29;20050;-69
2022/06/19 09:30:40;;;;;;;9.63;2.53;;;15.30;99.90;;;;;;4803939;29;20043;-68
2022/06/19 09:33:19;;;;;;;8.48;2.60;;;15.40;99.90;;;;;;4770785;29;20078;-67
2022/06/19 09:35:57;;;;;;;6.95;1.90;;;15.50;99.90;;;;;;4789931;29;20071;-67
2022/06/19 09:38:34;;;;;;;8.95;2.33;;;15.60;99.90;;;;;;4804494;29;20085;-68
2022/06/19 09:41:03;;;;;;;9.90;2.45;;;15.70;99.90;;;;;;4793852;29;20172;-69
2022/06/19 09:43:53;;;;;;;10.98;2.40;;;15.70;99.90;;;;;;4805544;29;20051;-68
2022/06/19 09:46:26;;;;;;;8.70;1.98;;;15.90;99.90;;;;;;4788719;29;20111;-68
2022/06/19 09:48:58;;;;;;;13.02;2.58;;;16.00;99.90;;;;;;4774019;29;20058;-68
2022/06/19 09:51:36;;;;;;;;;;;16.20;99.90;;;;;;4787145;29;20088;-68
2022/06/19 09:54:10;;;;;;;7.85;2.17;;;16.30;99.90;;;;;;4789450;29;19921;-69
2022/06/19 09:57:13;;;;;;;7.63;2.45;;;16.30;99.90;;;;;;4788893;29;20404;-67
2022/06/19 09:59:52;;;;;;;7.70;2.25;;;16.40;99.90;;;;;;4801620;29;20097;-69
2022/06/19 10:02:39;;;;;;;6.85;1.95;;;16.40;99.90;;;;;;4787577;29;20086;-68
2022/06/19 10:05:36;;;;;;;6.00;2.00;;;16.50;99.90;;;;;;4805652;29;20122;-68
2022/06/19 10:08:10;;;;;;;8.82;2.03;;;16.50;99.90;;;;;;4806029;29;20113;-67
2022/06/19 10:10:43;;;;;;;6.82;1.85;;;16.40;99.90;;;;;;4792586;29;20763;-69
2022/06/19 10:13:16;;;;;;;6.00;1.95;;;16.50;99.90;;;;;;4792197;29;20059;-68
2022/06/19 10:15:44;;;;;;;8.57;2.03;;;16.60;99.90;;;;;;4808799;29;20058;-68
2022/06/19 10:18:19;;;;;;;5.47;1.55;;;16.70;99.90;;;;;;4808082;29;20425;-68
2022/06/19 10:20:57;;;;;;;5.80;2.30;;;16.60;99.90;;;;;;4792324;29;20130;-68
2022/06/19 10:23:46;;;;;;;6.25;2.03;;;17.00;99.90;;;;;;4807162;29;20523;-68
2022/06/19 10:26:25;;;;;;;8.40;2.45;;;17.30;99.90;;;;;;4808362;29;20146;-68
2022/06/19 10:29:12;;;;;;;8.15;2.10;;;17.50;99.90;;;;;;4806579;29;20050;-68
2022/06/19 10:31:54;;;;;;;10.48;2.70;;;17.60;99.90;;;;;;4791059;29;20074;-68
2022/06/19 10:34:54;;;;;;;6.97;1.77;;;17.70;99.90;;;;;;4808923;29;20075;-69
2022/06/19 10:37:37;;;;;;;6.20;1.80;;;17.90;99.90;;;;;;4807217;29;20154;-68
2022/06/19 10:40:08;;;;;;;7.07;1.70;;;17.90;99.90;;;;;;4791174;29;20084;-68
2022/06/19 10:43:06;;;;;;;5.13;1.77;;;18.00;99.90;;;;;;4807284;29;20388;-68
2022/06/19 10:45:50;;;;;;;12.95;2.22;;;18.00;99.90;;;;;;4791086;29;20078;-69
2022/06/19 10:48:26;;;;;;;4.35;1.65;;;17.90;99.90;;;;;;4791507;29;20394;-67
2022/06/19 10:51:10;;;;;;;7.40;1.80;;;17.90;99.90;;;;;;4805533;29;20084;-68
2022/06/19 10:54:09;;;;;;;9.68;1.80;;;17.90;99.90;;;;;;4801856;29;20111;-69
2022/06/19 10:57:04;;;;;;;7.75;1.60;;;17.80;99.90;;;;;;4805933;29;20046;-68
2022/06/19 10:59:30;;;;;;;8.95;1.98;;;17.70;99.90;;;;;;4778837;29;20547;-69
2022/06/19 11:05:02;;;;;;;8.98;2.00;;;17.60;99.90;;;;;;4807587;29;20393;-69
2022/06/19 11:07:30;;;;;;;6.07;2.15;;;17.50;99.90;;;;;;4806335;29;20510;-67
2022/06/19 11:10:01;;;;;;;6.65;1.83;;;17.60;99.90;;;;;;4791563;29;20133;-67
2022/06/19 11:12:42;;;;;;;5.53;1.40;;;17.60;99.90;;;;;;4806749;29;20481;-67
2022/06/19 11:15:25;;;;;;;8.13;1.45;;;17.50;99.90;;;;;;4790577;29;20051;-66
2022/06/19 11:18:06;;;;;;;7.88;1.80;;;17.50;99.90;;;;;;4805335;29;20065;-67
2022/06/19 11:20:32;;;;;;;8.20;1.83;;;17.40;99.90;;;;;;4791452;29;20127;-68
2022/06/19 11:23:03;;;;;;;10.43;2.47;;;17.20;99.90;;;;;;4807385;29;20043;-67
2022/06/19 11:25:36;;;;;;;5.85;1.42;;;17.20;99.90;;;;;;4806067;29;20149;-67
2022/06/19 11:28:14;;;;;;;6.70;1.85;;;17.20;99.90;;;;;;4807055;29;20057;-69
2022/06/19 11:30:47;;;;;;;7.20;1.80;;;17.30;99.90;;;;;;4806507;29;20165;-70
2022/06/19 11:33:30;;;;;;;7.05;1.70;;;17.20;99.90;;;;;;4807197;29;20051;-70
2022/06/19 11:36:00;;;;;;;5.80;1.40;;;17.20;99.90;;;;;;4776363;29;20198;-67
2022/06/19 11:38:44;;;;;;;4.30;1.40;;;17.20;99.90;;;;;;4790325;29;20057;-68
2022/06/19 11:41:25;;;;;;;4.35;1.50;;;17.30;99.90;;;;;;4804835;29;20115;-68
2022/06/19 11:44:18;;;;;;;7.32;1.52;;;17.30;99.90;;;;;;4804080;29;20067;-68
2022/06/19 11:46:48;;;;;;;;;;;17.30;99.90;;;;;;4791315;29;20058;-69
2022/06/19 11:49:21;;;;;;;5.85;1.60;;;17.30;99.90;;;;;;4803661;29;20366;-68
2022/06/19 11:51:47;;;;;;;4.60;1.25;;;17.40;99.90;;;;;;4802225;29;20082;-69
2022/06/19 11:54:15;;;;;;;4.93;1.02;;;17.50;99.90;;;;;;4790705;29;20457;-68
2022/06/19 11:56:42;;;;;;;5.32;1.50;;;17.60;99.90;;;;;;4790410;29;20488;-68
2022/06/19 11:59:34;;;;;;;4.70;1.45;;;17.60;99.90;;;;;;4789705;29;20054;-69
2022/06/19 12:02:00;;;;;;;4.72;1.10;;;17.50;99.90;;;;;;4806626;29;20430;-68
2022/06/19 12:04:38;;;;;;;4.38;1.30;;;17.30;99.90;;;;;;4807063;29;20104;-69
2022/06/19 12:07:12;;;;;;;6.22;1.23;;;17.20;99.90;;;;;;4790928;29;20095;-68
2022/06/19 12:09:44;;;;;;;3.85;1.20;;;17.20;99.90;;;;;;4790956;29;20090;-68
2022/06/19 12:12:10;;;;;;;4.60;1.08;;;17.20;99.90;;;;;;4803664;29;20078;-68
2022/06/19 12:14:50;;;;;;;3.67;1.20;;;17.10;99.90;;;;;;4806819;29;20086;-68
2022/06/19 12:17:18;;;;;;;2.03;0.88;;;17.10;99.90;;;;;;4804112;29;20463;-69
2022/06/19 12:19:57;;;;;;;3.63;1.13;;;17.10;99.90;;;;;;4791020;29;20051;-68
2022/06/19 12:22:34;;;;;;;3.50;1.15;;;17.20;99.90;;;;;;4787826;29;20122;-68
2022/06/19 12:25:15;;;;;;;3.03;1.10;;;17.30;99.90;;;;;;4773472;29;20524;-68
2022/06/19 12:28:34;;;;;;;4.45;1.35;;;17.40;99.90;;;;;;4801134;29;20055;-68
2022/06/19 12:31:09;;;;;;;5.10;1.25;;;17.60;99.90;;;;;;4753808;29;20058;-69
2022/06/19 12:33:35;;;;;;;5.43;1.08;;;17.90;99.90;;;;;;4806918;29;20062;-68
2022/06/19 12:36:01;;;;;;;3.33;1.20;;;18.30;99.90;;;;;;4806351;29;20083;-69
2022/06/19 12:38:31;;;;;;;4.45;1.00;;;18.40;99.90;;;;;;4790458;29;20059;-69
2022/06/19 12:41:12;;;;;;;5.13;1.20;;;18.60;99.90;;;;;;4774348;29;20051;-69
2022/06/19 12:43:53;;;;;;;2.25;0.80;;;18.70;99.90;;;;;;4804886;29;20476;-68
2022/06/19 12:46:30;;;;;;;3.42;1.10;;;18.90;99.90;;;;;;4804431;29;20051;-69
2022/06/19 12:49:07;;;;;;;2.70;1.02;;;19.00;99.90;;;;;;4790119;29;20054;-68
2022/06/19 12:51:52;;;;;;;2.03;0.77;;;19.10;99.90;;;;;;4790144;29;20129;-67
2022/06/19 12:54:26;;;;;;;2.45;0.90;;;19.20;99.90;;;;;;4806652;29;20046;-69
2022/06/19 12:57:13;;;;;;;2.05;0.70;;;19.20;99.90;;;;;;4790015;29;20533;-67
2022/06/19 12:59:51;;;;;;;3.05;0.90;;;19.10;99.90;;;;;;4788234;29;20141;-69
2022/06/19 13:02:32;;;;;;;3.45;0.98;;;19.00;99.90;;;;;;4789845;29;20058;-69
2022/06/19 13:05:23;;;;;;;1.75;0.90;;;18.90;99.90;;;;;;4790162;29;20454;-69
2022/06/19 13:08:16;;;;;;;1.50;0.60;;;18.80;99.90;;;;;;4789831;29;20512;-67
2022/06/19 13:11:40;;;;;;;2.85;0.82;;;18.80;99.90;;;;;;4804163;29;20050;-67
2022/06/19 13:14:37;;;;;;;2.42;0.90;;;18.70;99.90;;;;;;4767121;30;20133;-68
2022/06/19 13:17:21;;;;;;;2.05;0.80;;;18.70;99.90;;;;;;4764903;29;20393;-68
2022/06/19 13:20:03;;;;;;;3.17;0.88;;;18.70;99.90;;;;;;4805482;29;20129;-68